createdAt,value
2018-03-02T00:00:38.931Z,0
2018-03-02T00:01:19.441Z,0
2018-03-02T00:01:59.957Z,0
2018-03-02T00:02:40.449Z,0
2018-03-02T00:03:20.973Z,0
2018-03-02T00:04:01.619Z,0
2018-03-02T00:04:42.480Z,0
2018-03-02T00:05:23.018Z,0
2018-03-02T00:06:03.483Z,0
2018-03-02T00:06:44.039Z,0
2018-03-02T00:07:24.499Z,0
2018-03-02T00:08:04.994Z,0
2018-03-02T00:08:45.511Z,0
2018-03-02T00:09:26.025Z,0
2018-03-02T00:10:06.589Z,0
2018-03-02T00:10:47.042Z,0
2018-03-02T00:11:27.564Z,0
2018-03-02T00:12:08.286Z,0
2018-03-02T00:12:49.186Z,0
2018-03-02T00:13:29.573Z,0
2018-03-02T00:14:10.080Z,0
2018-03-02T00:14:50.597Z,0
2018-03-02T00:15:31.106Z,0
2018-03-02T00:16:11.607Z,0
2018-03-02T00:16:52.108Z,0
2018-03-02T00:17:32.644Z,0
2018-03-02T00:18:13.112Z,0
2018-03-02T00:18:53.812Z,0
2018-03-02T00:19:34.368Z,0
2018-03-02T00:20:14.902Z,0
2018-03-02T00:20:55.393Z,0
2018-03-02T00:21:35.891Z,0
2018-03-02T00:22:16.403Z,0
2018-03-02T00:22:56.901Z,0
2018-03-02T00:23:37.396Z,0
2018-03-02T00:24:17.930Z,0
2018-03-02T00:24:58.496Z,0
2018-03-02T00:25:39.022Z,0
2018-03-02T00:26:19.419Z,0
2018-03-02T00:26:59.942Z,0
2018-03-02T00:27:40.484Z,0
2018-03-02T00:28:20.991Z,0
2018-03-02T00:29:01.528Z,0
2018-03-02T00:29:42.051Z,0
2018-03-02T00:30:22.517Z,0
2018-03-02T00:31:03.038Z,0
2018-03-02T00:31:43.572Z,0
2018-03-02T00:32:24.086Z,0
2018-03-02T00:33:04.602Z,0
2018-03-02T00:33:45.145Z,0
2018-03-02T00:34:25.688Z,0
2018-03-02T00:35:06.213Z,0
2018-03-02T00:35:46.745Z,0
2018-03-02T00:36:27.293Z,0
2018-03-02T00:37:07.836Z,0
2018-03-02T00:37:48.317Z,0
2018-03-02T00:38:28.861Z,0
2018-03-02T00:39:09.315Z,0
2018-03-02T00:39:49.817Z,0
2018-03-02T00:40:30.364Z,0
2018-03-02T00:41:10.971Z,0
2018-03-02T00:41:51.580Z,0
2018-03-02T00:42:32.064Z,0
2018-03-02T00:43:12.516Z,0
2018-03-02T00:43:53.009Z,0
2018-03-02T00:45:52.978Z,0
2018-03-02T00:46:33.478Z,0
2018-03-02T00:47:14.024Z,0
2018-03-02T00:47:54.532Z,0
2018-03-02T00:48:35.046Z,0
2018-03-02T00:49:15.573Z,0
2018-03-02T00:49:56.100Z,0
2018-03-02T00:50:36.647Z,0
2018-03-02T00:51:17.241Z,0
2018-03-02T00:51:58.031Z,0
2018-03-02T00:52:38.626Z,0
2018-03-02T00:53:19.143Z,0
2018-03-02T00:53:59.658Z,0
2018-03-02T00:54:40.165Z,0
2018-03-02T00:55:20.667Z,0
2018-03-02T00:56:01.176Z,0
2018-03-02T00:56:41.739Z,0
2018-03-02T00:57:22.222Z,0
2018-03-02T00:58:02.721Z,0
2018-03-02T00:58:43.232Z,0
2018-03-02T00:59:24.560Z,0
2018-03-02T01:00:05.032Z,0
2018-03-02T01:00:45.639Z,0
2018-03-02T01:01:26.324Z,0
2018-03-02T01:02:06.852Z,0
2018-03-02T01:02:47.316Z,0
2018-03-02T01:03:27.844Z,0
2018-03-02T01:04:08.356Z,0
2018-03-02T01:04:48.863Z,0
2018-03-02T01:05:29.381Z,0
2018-03-02T01:06:09.871Z,0
2018-03-02T01:06:50.353Z,0
2018-03-02T01:07:30.844Z,0
2018-03-02T01:08:11.613Z,0
2018-03-02T01:10:40.413Z,0
2018-03-02T01:11:20.914Z,0
2018-03-02T01:13:51.413Z,0
2018-03-02T01:14:31.946Z,0
2018-03-02T01:15:12.478Z,0
2018-03-02T01:15:53.146Z,0
2018-03-02T01:16:33.507Z,0
2018-03-02T01:17:13.974Z,0
2018-03-02T01:17:54.524Z,0
2018-03-02T01:18:35.030Z,0
2018-03-02T01:19:15.474Z,0
2018-03-02T01:19:55.939Z,0
2018-03-02T01:20:36.442Z,0
2018-03-02T01:21:16.955Z,0
2018-03-02T01:21:57.445Z,0
2018-03-02T01:22:37.958Z,0
2018-03-02T01:23:18.483Z,0
2018-03-02T01:23:58.992Z,0
2018-03-02T01:24:39.514Z,0
2018-03-02T01:25:20.080Z,0
2018-03-02T01:26:00.577Z,0
2018-03-02T01:26:41.042Z,0
2018-03-02T01:27:21.532Z,0
2018-03-02T01:28:02.022Z,0
2018-03-02T01:28:42.527Z,0
2018-03-02T01:29:23.045Z,0
2018-03-02T01:30:03.530Z,0
2018-03-02T01:30:44.044Z,0
2018-03-02T01:31:24.565Z,0
2018-03-02T01:32:05.028Z,0
2018-03-02T01:32:45.506Z,0
2018-03-02T01:33:26.013Z,0
2018-03-02T01:34:06.482Z,0
2018-03-02T01:34:46.944Z,0
2018-03-02T01:35:27.480Z,0
2018-03-02T01:36:07.964Z,0
2018-03-02T01:36:48.447Z,0
2018-03-02T01:37:29.051Z,0
2018-03-02T01:38:09.575Z,0
2018-03-02T01:38:50.101Z,0
2018-03-02T01:39:30.617Z,0
2018-03-02T01:40:11.048Z,0
2018-03-02T01:40:51.571Z,0
2018-03-02T01:41:32.070Z,0
2018-03-02T01:42:12.575Z,0
2018-03-02T01:42:53.132Z,0
2018-03-02T01:43:33.603Z,0
2018-03-02T01:44:14.075Z,0
2018-03-02T01:44:54.575Z,0
2018-03-02T01:45:35.088Z,0
2018-03-02T01:46:15.582Z,0
2018-03-02T01:46:56.131Z,0
2018-03-02T01:47:36.601Z,0
2018-03-02T01:48:17.072Z,0
2018-03-02T01:48:57.558Z,0
2018-03-02T01:49:38.019Z,0
2018-03-02T01:50:18.546Z,0
2018-03-02T01:50:59.142Z,0
2018-03-02T01:51:39.565Z,0
2018-03-02T01:52:20.104Z,0
2018-03-02T01:53:00.626Z,0
2018-03-02T01:53:41.168Z,0
2018-03-02T01:54:21.637Z,0
2018-03-02T01:55:02.191Z,0
2018-03-02T01:55:42.669Z,0
2018-03-02T01:56:23.177Z,0
2018-03-02T01:57:03.659Z,0
2018-03-02T01:57:44.150Z,0
2018-03-02T01:58:24.965Z,0
2018-03-02T01:59:05.464Z,0
2018-03-02T01:59:45.899Z,0
2018-03-02T02:00:26.378Z,0
2018-03-02T02:01:06.894Z,0
2018-03-02T02:03:06.832Z,0
2018-03-02T02:03:47.330Z,0
2018-03-02T02:04:27.831Z,0
2018-03-02T02:05:08.346Z,0
2018-03-02T02:05:48.846Z,0
2018-03-02T02:06:29.382Z,0
2018-03-02T02:07:09.892Z,0
2018-03-02T02:07:50.385Z,0
2018-03-02T02:08:30.908Z,0
2018-03-02T02:09:11.392Z,0
2018-03-02T02:09:51.918Z,0
2018-03-02T02:10:32.420Z,0
2018-03-02T02:11:12.943Z,0
2018-03-02T02:11:53.433Z,0
2018-03-02T02:12:33.943Z,0
2018-03-02T02:13:14.483Z,0
2018-03-02T02:13:54.946Z,0
2018-03-02T02:14:35.439Z,0
2018-03-02T02:15:15.947Z,0
2018-03-02T02:15:56.453Z,0
2018-03-02T02:16:36.968Z,0
2018-03-02T02:17:17.459Z,0
2018-03-02T02:17:57.963Z,0
2018-03-02T02:18:38.480Z,0
2018-03-02T02:19:18.995Z,0
2018-03-02T02:19:59.514Z,0
2018-03-02T02:20:40.041Z,0
2018-03-02T02:21:20.553Z,0
2018-03-02T02:22:01.066Z,0
2018-03-02T02:22:41.577Z,0
2018-03-02T02:23:22.074Z,0
2018-03-02T02:24:02.585Z,0
2018-03-02T02:24:43.098Z,0
2018-03-02T02:25:23.624Z,0
2018-03-02T02:26:04.138Z,0
2018-03-02T02:26:44.647Z,0
2018-03-02T02:27:25.158Z,0
2018-03-02T02:28:05.690Z,0
2018-03-02T02:28:46.199Z,0
2018-03-02T02:29:26.709Z,0
2018-03-02T02:30:07.235Z,0
2018-03-02T02:30:47.747Z,0
2018-03-02T02:31:28.258Z,0
2018-03-02T02:32:08.762Z,0
2018-03-02T02:32:49.277Z,0
2018-03-02T02:33:29.802Z,0
2018-03-02T02:34:10.308Z,0
2018-03-02T02:34:50.809Z,0
2018-03-02T02:35:31.320Z,0
2018-03-02T02:36:11.829Z,0
2018-03-02T02:36:52.341Z,0
2018-03-02T02:37:32.854Z,0
2018-03-02T02:38:13.360Z,0
2018-03-02T02:38:53.886Z,0
2018-03-02T02:39:34.398Z,0
2018-03-02T02:40:14.895Z,0
2018-03-02T02:40:55.408Z,0
2018-03-02T02:41:35.923Z,0
2018-03-02T02:42:16.432Z,0
2018-03-02T02:42:56.941Z,0
2018-03-02T02:43:37.426Z,0
2018-03-02T02:44:17.947Z,0
2018-03-02T02:44:58.459Z,0
2018-03-02T02:45:38.966Z,0
2018-03-02T02:46:19.465Z,0
2018-03-02T02:46:59.977Z,0
2018-03-02T02:47:40.502Z,0
2018-03-02T02:48:20.992Z,0
2018-03-02T02:49:01.539Z,0
2018-03-02T02:49:42.049Z,0
2018-03-02T02:50:22.556Z,0
2018-03-02T02:51:03.085Z,0
2018-03-02T02:51:43.608Z,0
2018-03-02T02:52:24.114Z,0
2018-03-02T02:53:04.624Z,0
2018-03-02T02:53:45.140Z,0
2018-03-02T02:54:25.662Z,0
2018-03-02T02:55:06.186Z,0
2018-03-02T02:55:46.694Z,0
2018-03-02T02:56:27.216Z,0
2018-03-02T02:57:07.726Z,0
2018-03-02T02:57:48.222Z,0
2018-03-02T02:58:28.788Z,0
2018-03-02T02:59:09.248Z,0
2018-03-02T02:59:49.743Z,0
2018-03-02T03:00:30.252Z,0
2018-03-02T03:01:10.767Z,0
2018-03-02T03:01:51.274Z,0
2018-03-02T03:02:31.809Z,0
2018-03-02T03:03:12.317Z,0
2018-03-02T03:03:52.811Z,0
2018-03-02T03:04:33.337Z,0
2018-03-02T03:05:13.867Z,0
2018-03-02T03:05:54.362Z,0
2018-03-02T03:06:34.873Z,0
2018-03-02T03:07:15.383Z,0
2018-03-02T03:07:56.004Z,0
2018-03-02T03:08:36.512Z,0
2018-03-02T03:09:17.046Z,0
2018-03-02T03:09:57.585Z,0
2018-03-02T03:10:38.103Z,0
2018-03-02T03:11:18.616Z,0
2018-03-02T03:11:59.222Z,0
2018-03-02T03:12:39.741Z,0
2018-03-02T03:13:20.247Z,0
2018-03-02T03:14:00.763Z,0
2018-03-02T03:14:41.265Z,0
2018-03-02T03:15:21.788Z,0
2018-03-02T03:16:02.301Z,0
2018-03-02T03:16:42.836Z,0
2018-03-02T03:17:23.351Z,0
2018-03-02T03:18:03.858Z,0
2018-03-02T03:18:44.369Z,0
2018-03-02T03:19:24.892Z,0
2018-03-02T03:20:05.406Z,0
2018-03-02T03:20:45.920Z,0
2018-03-02T03:21:26.435Z,0
2018-03-02T03:22:06.965Z,0
2018-03-02T03:22:47.459Z,0
2018-03-02T03:23:27.978Z,0
2018-03-02T03:24:08.491Z,0
2018-03-02T03:24:49.006Z,0
2018-03-02T03:25:29.518Z,0
2018-03-02T03:26:10.027Z,0
2018-03-02T03:26:50.528Z,0
2018-03-02T03:27:31.038Z,0
2018-03-02T03:28:11.551Z,0
2018-03-02T03:28:52.070Z,0
2018-03-02T03:29:32.577Z,0
2018-03-02T03:30:13.108Z,0
2018-03-02T03:30:53.624Z,0
2018-03-02T03:31:34.154Z,0
2018-03-02T03:32:14.673Z,0
2018-03-02T03:32:55.200Z,0
2018-03-02T03:33:35.706Z,0
2018-03-02T03:34:16.208Z,0
2018-03-02T03:34:56.722Z,0
2018-03-02T03:35:37.265Z,0
2018-03-02T03:36:17.777Z,0
2018-03-02T03:36:58.354Z,0
2018-03-02T03:37:38.776Z,0
2018-03-02T03:38:19.296Z,0
2018-03-02T03:38:59.834Z,0
2018-03-02T03:39:40.331Z,0
2018-03-02T03:40:20.846Z,0
2018-03-02T03:41:01.353Z,0
2018-03-02T03:41:41.874Z,0
2018-03-02T03:42:22.392Z,0
2018-03-02T03:43:03.451Z,0
2018-03-02T03:43:43.980Z,0
2018-03-02T03:44:24.485Z,0
2018-03-02T03:45:05.040Z,0
2018-03-02T03:45:45.544Z,0
2018-03-02T03:46:26.094Z,0
2018-03-02T03:47:06.595Z,0
2018-03-02T03:47:47.117Z,0
2018-03-02T03:48:27.617Z,0
2018-03-02T03:49:08.124Z,0
2018-03-02T03:49:48.640Z,0
2018-03-02T03:50:29.152Z,0
2018-03-02T03:51:09.681Z,0
2018-03-02T03:51:50.195Z,0
2018-03-02T03:52:30.693Z,0
2018-03-02T03:53:11.209Z,0
2018-03-02T03:53:51.730Z,0
2018-03-02T03:54:32.274Z,0
2018-03-02T03:55:12.791Z,0
2018-03-02T03:55:53.306Z,0
2018-03-02T03:56:33.805Z,0
2018-03-02T03:57:14.367Z,0
2018-03-02T03:57:54.892Z,0
2018-03-02T04:00:23.418Z,0
2018-03-02T04:01:03.933Z,0
2018-03-02T04:01:44.457Z,0
2018-03-02T04:02:24.947Z,0
2018-03-02T04:03:05.465Z,0
2018-03-02T04:03:45.986Z,0
2018-03-02T04:04:26.495Z,0
2018-03-02T04:05:07.035Z,0
2018-03-02T04:05:47.550Z,0
2018-03-02T04:06:28.064Z,0
2018-03-02T04:07:08.573Z,0
2018-03-02T04:07:49.081Z,0
2018-03-02T04:08:29.597Z,0
2018-03-02T04:09:10.103Z,0
2018-03-02T04:09:50.610Z,0
2018-03-02T04:10:31.120Z,0
2018-03-02T04:11:11.641Z,0
2018-03-02T04:11:52.144Z,0
2018-03-02T04:12:32.670Z,0
2018-03-02T04:13:13.176Z,0
2018-03-02T04:13:53.687Z,0
2018-03-02T04:14:34.187Z,0
2018-03-02T04:15:14.714Z,0
2018-03-02T04:15:55.231Z,0
2018-03-02T04:16:35.752Z,0
2018-03-02T04:17:16.274Z,0
2018-03-02T04:17:56.793Z,0
2018-03-02T04:18:37.301Z,0
2018-03-02T04:19:17.815Z,0
2018-03-02T04:19:58.324Z,0
2018-03-02T04:20:38.824Z,0
2018-03-02T04:21:19.336Z,0
2018-03-02T04:21:59.847Z,0
2018-03-02T04:22:40.374Z,0
2018-03-02T04:23:20.931Z,0
2018-03-02T04:24:01.385Z,0
2018-03-02T04:24:41.895Z,0
2018-03-02T04:25:22.406Z,0
2018-03-02T04:26:02.914Z,0
2018-03-02T04:26:43.415Z,0
2018-03-02T04:27:23.928Z,0
2018-03-02T04:28:04.447Z,0
2018-03-02T04:28:44.947Z,0
2018-03-02T04:29:25.466Z,0
2018-03-02T04:30:05.961Z,0
2018-03-02T04:30:46.470Z,0
2018-03-02T04:31:26.984Z,0
2018-03-02T04:32:07.482Z,0
2018-03-02T04:32:47.993Z,0
2018-03-02T04:33:28.496Z,0
2018-03-02T04:34:09.011Z,0
2018-03-02T04:34:49.517Z,0
2018-03-02T04:35:30.043Z,0
2018-03-02T04:36:10.555Z,0
2018-03-02T04:36:51.058Z,0
2018-03-02T04:37:31.576Z,0
2018-03-02T04:38:12.174Z,0
2018-03-02T04:38:52.680Z,0
2018-03-02T04:39:33.186Z,0
2018-03-02T04:40:13.697Z,0
2018-03-02T04:40:54.226Z,0
2018-03-02T04:43:29.570Z,0
2018-03-02T04:44:10.058Z,0
2018-03-02T04:44:50.564Z,0
2018-03-02T04:45:31.082Z,0
2018-03-02T04:46:11.619Z,0
2018-03-02T04:46:52.125Z,0
2018-03-02T04:47:32.635Z,0
2018-03-02T04:48:13.173Z,0
2018-03-02T04:48:53.636Z,0
2018-03-02T04:49:34.169Z,0
2018-03-02T04:50:14.664Z,0
2018-03-02T04:50:55.177Z,0
2018-03-02T04:51:35.686Z,0
2018-03-02T04:52:16.191Z,0
2018-03-02T04:52:56.698Z,0
2018-03-02T04:53:37.221Z,0
2018-03-02T04:54:17.705Z,0
2018-03-02T04:54:58.228Z,0
2018-03-02T04:55:38.724Z,0
2018-03-02T04:56:19.269Z,0
2018-03-02T04:56:59.744Z,0
2018-03-02T04:57:40.233Z,0
2018-03-02T04:58:20.743Z,0
2018-03-02T04:59:01.249Z,0
2018-03-02T04:59:41.743Z,0
2018-03-02T05:00:22.253Z,0
2018-03-02T05:01:02.763Z,0
2018-03-02T05:01:43.257Z,0
2018-03-02T05:02:23.758Z,0
2018-03-02T05:03:04.235Z,0
2018-03-02T05:03:44.728Z,0
2018-03-02T05:04:25.226Z,0
2018-03-02T05:05:05.734Z,0
2018-03-02T05:05:46.228Z,0
2018-03-02T05:06:26.748Z,0
2018-03-02T05:07:07.256Z,0
2018-03-02T05:07:47.754Z,0
2018-03-02T05:08:28.260Z,0
2018-03-02T05:09:08.776Z,0
2018-03-02T05:09:49.276Z,0
2018-03-02T05:10:29.778Z,0
2018-03-02T05:11:10.272Z,0
2018-03-02T05:11:50.774Z,0
2018-03-02T05:12:31.281Z,0
2018-03-02T05:13:11.783Z,0
2018-03-02T05:13:52.278Z,0
2018-03-02T05:14:32.788Z,0
2018-03-02T05:15:13.282Z,0
2018-03-02T05:15:53.794Z,0
2018-03-02T05:16:34.295Z,0
2018-03-02T05:17:14.783Z,0
2018-03-02T05:17:55.285Z,0
2018-03-02T05:18:35.799Z,0
2018-03-02T05:19:16.288Z,0
2018-03-02T05:21:16.217Z,0
2018-03-02T05:21:56.731Z,0
2018-03-02T05:22:37.240Z,0
2018-03-02T05:23:17.749Z,0
2018-03-02T05:23:58.278Z,0
2018-03-02T05:24:38.777Z,0
2018-03-02T05:25:19.299Z,0
2018-03-02T05:25:59.829Z,0
2018-03-02T05:26:40.309Z,0
2018-03-02T05:27:20.831Z,0
2018-03-02T05:28:01.323Z,0
2018-03-02T05:28:41.822Z,0
2018-03-02T05:29:22.320Z,0
2018-03-02T05:30:02.840Z,0
2018-03-02T05:30:43.334Z,0
2018-03-02T05:31:23.839Z,0
2018-03-02T05:32:04.358Z,0
2018-03-02T05:32:44.895Z,0
2018-03-02T05:33:25.414Z,0
2018-03-02T05:34:05.934Z,0
2018-03-02T05:34:46.552Z,0
2018-03-02T05:35:27.049Z,0
2018-03-02T05:36:07.570Z,0
2018-03-02T05:36:48.061Z,0
2018-03-02T05:37:28.584Z,0
2018-03-02T05:38:09.134Z,0
2018-03-02T05:38:49.642Z,0
2018-03-02T05:41:02.856Z,0
2018-03-02T05:41:43.368Z,0
2018-03-02T05:42:23.932Z,0
2018-03-02T05:43:04.379Z,0
2018-03-02T05:43:44.858Z,4
2018-03-02T05:44:25.367Z,4
2018-03-02T05:45:05.908Z,0
2018-03-02T05:45:46.398Z,0
2018-03-02T05:46:26.923Z,0
2018-03-02T05:47:07.441Z,4
2018-03-02T05:47:47.944Z,4
2018-03-02T05:48:28.429Z,0
2018-03-02T05:49:08.925Z,4
2018-03-02T05:49:49.399Z,4
2018-03-02T05:50:29.918Z,4
2018-03-02T05:51:10.494Z,4
2018-03-02T05:51:51.019Z,8
2018-03-02T05:52:31.523Z,4
2018-03-02T05:53:12.021Z,8
2018-03-02T05:53:52.534Z,4
2018-03-02T05:54:33.027Z,8
2018-03-02T05:55:13.528Z,8
2018-03-02T05:55:54.026Z,8
2018-03-02T05:56:34.566Z,8
2018-03-02T05:57:15.067Z,12
2018-03-02T05:57:55.557Z,12
2018-03-02T05:58:36.088Z,12
2018-03-02T05:59:16.582Z,16
2018-03-02T05:59:57.059Z,20
2018-03-02T06:00:37.559Z,20
2018-03-02T06:01:18.049Z,24
2018-03-02T06:01:58.594Z,24
2018-03-02T06:02:39.360Z,28
2018-03-02T06:03:19.804Z,32
2018-03-02T06:04:00.415Z,28
2018-03-02T06:04:40.926Z,32
2018-03-02T06:05:21.423Z,32
2018-03-02T06:06:01.916Z,32
2018-03-02T06:06:42.431Z,36
2018-03-02T06:07:22.955Z,36
2018-03-02T06:08:03.464Z,40
2018-03-02T06:08:43.964Z,44
2018-03-02T06:09:24.474Z,48
2018-03-02T06:10:05.023Z,52
2018-03-02T06:10:45.563Z,52
2018-03-02T06:11:26.074Z,56
2018-03-02T06:12:06.623Z,60
2018-03-02T06:12:47.081Z,64
2018-03-02T06:13:27.591Z,64
2018-03-02T06:14:08.101Z,64
2018-03-02T06:14:48.595Z,68
2018-03-02T06:15:29.103Z,68
2018-03-02T06:16:09.604Z,72
2018-03-02T06:16:50.127Z,76
2018-03-02T06:17:30.677Z,80
2018-03-02T06:18:11.236Z,84
2018-03-02T06:18:51.760Z,88
2018-03-02T06:19:32.282Z,92
2018-03-02T06:20:12.792Z,96
2018-03-02T06:20:53.304Z,104
2018-03-02T06:21:33.825Z,108
2018-03-02T06:22:14.370Z,116
2018-03-02T06:22:54.873Z,120
2018-03-02T06:23:35.381Z,124
2018-03-02T06:25:48.810Z,144
2018-03-02T06:26:29.312Z,148
2018-03-02T06:27:09.815Z,152
2018-03-02T06:27:50.315Z,160
2018-03-02T06:28:30.837Z,168
2018-03-02T06:29:11.359Z,176
2018-03-02T06:29:51.855Z,184
2018-03-02T06:30:32.378Z,192
2018-03-02T06:31:12.884Z,196
2018-03-02T06:31:53.396Z,208
2018-03-02T06:32:33.904Z,212
2018-03-02T06:33:14.428Z,220
2018-03-02T06:33:54.935Z,228
2018-03-02T06:34:35.433Z,232
2018-03-02T06:35:15.917Z,236
2018-03-02T06:35:56.452Z,248
2018-03-02T06:36:36.964Z,252
2018-03-02T06:37:17.503Z,260
2018-03-02T06:37:57.980Z,264
2018-03-02T06:38:38.488Z,268
2018-03-02T06:39:19.012Z,276
2018-03-02T06:39:59.515Z,284
2018-03-02T06:40:40.059Z,288
2018-03-02T06:41:20.558Z,292
2018-03-02T06:42:01.061Z,296
2018-03-02T06:42:41.579Z,300
2018-03-02T06:43:22.078Z,304
2018-03-02T06:44:02.595Z,312
2018-03-02T06:44:43.109Z,316
2018-03-02T06:45:23.629Z,328
2018-03-02T06:46:04.146Z,328
2018-03-02T06:46:44.660Z,336
2018-03-02T06:47:25.192Z,344
2018-03-02T06:48:05.699Z,348
2018-03-02T06:48:46.217Z,352
2018-03-02T06:49:26.727Z,360
2018-03-02T06:50:07.234Z,364
2018-03-02T06:50:47.758Z,368
2018-03-02T06:51:28.262Z,372
2018-03-02T06:52:08.768Z,372
2018-03-02T06:52:49.274Z,376
2018-03-02T06:53:29.777Z,384
2018-03-02T06:54:10.297Z,384
2018-03-02T06:54:50.816Z,388
2018-03-02T06:55:31.337Z,388
2018-03-02T06:56:11.852Z,388
2018-03-02T06:56:52.393Z,388
2018-03-02T06:57:32.906Z,396
2018-03-02T06:58:13.447Z,400
2018-03-02T06:58:53.951Z,404
2018-03-02T06:59:34.450Z,408
2018-03-02T07:00:14.964Z,412
2018-03-02T07:00:55.484Z,416
2018-03-02T07:01:35.990Z,424
2018-03-02T07:02:16.496Z,428
2018-03-02T07:02:56.985Z,436
2018-03-02T07:03:37.543Z,436
2018-03-02T07:04:18.063Z,444
2018-03-02T07:04:58.582Z,448
2018-03-02T07:05:39.106Z,452
2018-03-02T07:06:19.620Z,460
2018-03-02T07:07:00.123Z,464
2018-03-02T07:07:40.622Z,472
2018-03-02T07:08:21.128Z,476
2018-03-02T07:09:01.636Z,480
2018-03-02T07:09:42.187Z,484
2018-03-02T07:10:22.663Z,488
2018-03-02T07:11:03.219Z,492
2018-03-02T07:11:43.719Z,492
2018-03-02T07:12:24.228Z,500
2018-03-02T07:13:04.750Z,500
2018-03-02T07:13:45.264Z,508
2018-03-02T07:14:25.770Z,512
2018-03-02T07:15:06.288Z,516
2018-03-02T07:15:47.005Z,524
2018-03-02T07:16:27.518Z,532
2018-03-02T07:17:08.053Z,536
2018-03-02T07:17:48.558Z,540
2018-03-02T07:18:29.049Z,544
2018-03-02T07:19:09.578Z,548
2018-03-02T07:19:50.121Z,556
2018-03-02T07:20:30.609Z,560
2018-03-02T07:21:11.109Z,564
2018-03-02T07:21:51.627Z,576
2018-03-02T07:22:32.144Z,584
2018-03-02T07:23:12.654Z,588
2018-03-02T07:23:53.181Z,596
2018-03-02T07:24:33.724Z,596
2018-03-02T07:25:14.226Z,604
2018-03-02T07:25:54.717Z,596
2018-03-02T07:26:35.229Z,616
2018-03-02T07:27:15.804Z,620
2018-03-02T07:27:56.312Z,604
2018-03-02T07:28:36.822Z,620
2018-03-02T07:29:17.884Z,624
2018-03-02T07:29:58.417Z,640
2018-03-02T07:30:38.932Z,644
2018-03-02T07:31:19.432Z,664
2018-03-02T07:32:00.015Z,672
2018-03-02T07:32:40.505Z,680
2018-03-02T07:33:21.963Z,688
2018-03-02T07:34:02.568Z,700
2018-03-02T07:34:43.260Z,704
2018-03-02T07:35:23.791Z,712
2018-03-02T07:36:04.313Z,724
2018-03-02T07:36:44.830Z,736
2018-03-02T07:37:25.352Z,744
2018-03-02T07:38:05.850Z,760
2018-03-02T07:38:46.361Z,772
2018-03-02T07:39:26.862Z,788
2018-03-02T07:40:07.379Z,800
2018-03-02T07:40:47.930Z,816
2018-03-02T07:41:28.465Z,832
2018-03-02T07:42:08.944Z,848
2018-03-02T07:42:49.437Z,860
2018-03-02T07:43:29.946Z,876
2018-03-02T07:44:10.454Z,888
2018-03-02T07:44:50.969Z,904
2018-03-02T07:45:31.477Z,916
2018-03-02T07:46:11.981Z,936
2018-03-02T07:46:52.504Z,952
2018-03-02T07:47:33.011Z,968
2018-03-02T07:48:13.573Z,984
2018-03-02T07:48:54.050Z,1000
2018-03-02T07:49:34.565Z,1012
2018-03-02T07:50:15.080Z,1028
2018-03-02T07:50:55.608Z,1036
2018-03-02T07:51:36.146Z,1052
2018-03-02T07:52:16.632Z,1068
2018-03-02T07:52:57.160Z,1080
2018-03-02T07:53:37.704Z,1100
2018-03-02T07:54:18.275Z,1116
2018-03-02T07:54:58.782Z,1132
2018-03-02T07:56:56.950Z,1180
2018-03-02T07:57:38.309Z,1196
2018-03-02T07:58:18.812Z,1216
2018-03-02T07:58:59.308Z,1228
2018-03-02T07:59:39.829Z,1248
2018-03-02T08:00:20.354Z,1260
2018-03-02T08:01:00.865Z,1280
2018-03-02T08:01:41.819Z,1292
2018-03-02T08:02:22.343Z,1316
2018-03-02T08:03:02.843Z,1332
2018-03-02T08:03:43.383Z,1348
2018-03-02T08:04:23.912Z,1368
2018-03-02T08:05:04.442Z,1384
2018-03-02T08:05:44.914Z,1396
2018-03-02T08:06:25.429Z,1412
2018-03-02T08:07:05.968Z,1428
2018-03-02T08:09:24.420Z,1480
2018-03-02T08:10:05.005Z,1504
2018-03-02T08:10:45.535Z,1516
2018-03-02T08:11:26.042Z,1516
2018-03-02T08:12:06.545Z,1484
2018-03-02T08:12:47.048Z,1528
2018-03-02T08:13:27.642Z,1596
2018-03-02T08:14:08.172Z,1568
2018-03-02T08:14:48.674Z,1624
2018-03-02T08:15:29.178Z,1628
2018-03-02T08:16:09.755Z,1664
2018-03-02T08:16:50.237Z,1696
2018-03-02T08:17:30.740Z,1716
2018-03-02T08:18:11.263Z,1744
2018-03-02T08:18:52.007Z,1764
2018-03-02T08:19:32.418Z,1792
2018-03-02T08:20:12.945Z,1816
2018-03-02T08:20:53.485Z,1844
2018-03-02T08:21:33.974Z,1868
2018-03-02T08:22:14.601Z,1896
2018-03-02T08:22:55.152Z,1904
2018-03-02T08:23:35.630Z,1932
2018-03-02T08:24:16.146Z,1928
2018-03-02T08:24:56.642Z,1972
2018-03-02T08:25:37.162Z,2028
2018-03-02T08:26:17.704Z,2000
2018-03-02T08:26:58.262Z,2068
2018-03-02T08:27:38.908Z,2072
2018-03-02T08:28:19.436Z,2116
2018-03-02T08:29:00.163Z,2132
2018-03-02T08:29:41.576Z,2148
2018-03-02T08:30:22.079Z,2164
2018-03-02T08:31:02.581Z,2184
2018-03-02T08:31:43.088Z,2208
2018-03-02T08:32:23.596Z,2228
2018-03-02T08:33:04.132Z,2252
2018-03-02T08:33:44.664Z,2276
2018-03-02T08:34:25.271Z,2296
2018-03-02T08:35:05.679Z,2312
2018-03-02T08:35:46.189Z,2320
2018-03-02T08:36:26.710Z,2336
2018-03-02T08:37:07.199Z,2344
2018-03-02T08:37:47.799Z,2348
2018-03-02T08:38:28.240Z,2352
2018-03-02T08:39:08.725Z,2352
2018-03-02T08:39:49.160Z,2348
2018-03-02T08:40:29.661Z,2348
2018-03-02T08:41:10.134Z,2344
2018-03-02T08:41:50.621Z,2340
2018-03-02T08:42:31.145Z,2332
2018-03-02T08:43:11.661Z,2328
2018-03-02T08:43:52.189Z,2324
2018-03-02T08:44:32.699Z,2320
2018-03-02T08:45:13.207Z,2324
2018-03-02T08:45:53.710Z,2328
2018-03-02T08:46:34.213Z,2340
2018-03-02T08:47:14.715Z,2340
2018-03-02T08:47:55.289Z,2348
2018-03-02T08:48:35.808Z,2356
2018-03-02T08:49:16.304Z,2368
2018-03-02T08:49:56.862Z,2376
2018-03-02T08:50:37.318Z,2360
2018-03-02T08:51:17.824Z,2372
2018-03-02T08:51:58.577Z,2404
2018-03-02T08:52:39.112Z,2376
2018-03-02T08:53:19.654Z,2384
2018-03-02T08:54:00.169Z,2428
2018-03-02T08:54:40.686Z,2460
2018-03-02T08:55:21.222Z,2484
2018-03-02T08:56:01.742Z,2508
2018-03-02T08:56:42.251Z,2528
2018-03-02T08:57:22.782Z,2552
2018-03-02T08:58:03.396Z,2564
2018-03-02T08:58:43.840Z,2580
2018-03-02T08:59:24.350Z,2600
2018-03-02T09:00:05.101Z,2616
2018-03-02T09:00:45.580Z,2636
2018-03-02T09:01:26.731Z,2648
2018-03-02T09:02:07.788Z,2664
2018-03-02T09:02:48.085Z,2680
2018-03-02T09:03:28.597Z,2700
2018-03-02T09:04:09.180Z,2720
2018-03-02T09:04:49.721Z,2748
2018-03-02T09:05:31.267Z,2768
2018-03-02T09:06:11.666Z,2792
2018-03-02T09:06:52.136Z,2812
2018-03-02T09:07:32.920Z,2832
2018-03-02T09:08:13.485Z,2848
2018-03-02T09:08:53.995Z,2864
2018-03-02T09:09:34.510Z,2876
2018-03-02T09:10:15.848Z,2888
2018-03-02T09:10:56.200Z,2904
2018-03-02T09:11:37.169Z,2912
2018-03-02T09:12:17.673Z,2916
2018-03-02T09:12:58.241Z,2912
2018-03-02T09:13:38.794Z,2916
2018-03-02T09:14:19.434Z,2916
2018-03-02T09:14:59.855Z,2912
2018-03-02T09:15:40.323Z,2912
2018-03-02T09:16:20.839Z,2916
2018-03-02T09:17:01.351Z,2924
2018-03-02T09:17:41.835Z,2940
2018-03-02T09:18:22.340Z,2952
2018-03-02T09:19:02.790Z,2968
2018-03-02T09:19:43.473Z,2988
2018-03-02T09:20:23.903Z,3008
2018-03-02T09:21:04.544Z,3032
2018-03-02T09:21:45.797Z,3060
2018-03-02T09:22:26.273Z,3088
2018-03-02T09:23:07.183Z,3120
2018-03-02T09:23:47.647Z,3156
2018-03-02T09:24:28.056Z,3196
2018-03-02T09:25:08.519Z,3200
2018-03-02T09:25:49.005Z,3244
2018-03-02T09:26:29.494Z,3276
2018-03-02T09:27:10.009Z,3308
2018-03-02T09:27:50.535Z,3320
2018-03-02T09:28:31.039Z,3348
2018-03-02T09:29:11.555Z,3364
2018-03-02T09:29:52.018Z,3384
2018-03-02T09:30:32.518Z,3408
2018-03-02T09:31:13.034Z,3428
2018-03-02T09:31:53.570Z,3448
2018-03-02T09:32:34.072Z,3472
2018-03-02T09:33:14.600Z,3488
2018-03-02T09:33:55.211Z,3500
2018-03-02T09:34:35.737Z,3508
2018-03-02T09:35:16.236Z,3520
2018-03-02T09:35:56.739Z,3528
2018-03-02T09:36:37.279Z,3520
2018-03-02T09:37:17.800Z,3512
2018-03-02T09:37:58.317Z,3472
2018-03-02T09:38:38.847Z,3464
2018-03-02T09:39:19.434Z,3468
2018-03-02T09:39:59.887Z,3368
2018-03-02T09:40:40.431Z,3380
2018-03-02T09:41:20.931Z,3340
2018-03-02T09:42:01.425Z,3256
2018-03-02T09:42:41.942Z,3284
2018-03-02T09:43:22.447Z,3120
2018-03-02T09:44:02.979Z,3064
2018-03-02T09:44:43.495Z,3012
2018-03-02T09:45:24.073Z,2932
2018-03-02T09:46:04.583Z,2868
2018-03-02T09:46:45.097Z,2812
2018-03-02T09:47:25.622Z,2712
2018-03-02T09:48:06.142Z,2592
2018-03-02T09:48:46.648Z,2528
2018-03-02T09:49:27.478Z,2480
2018-03-02T09:50:08.007Z,2508
2018-03-02T09:50:48.537Z,2548
2018-03-02T09:51:29.042Z,2608
2018-03-02T09:52:09.564Z,2756
2018-03-02T09:52:50.051Z,2776
2018-03-02T09:53:30.556Z,2700
2018-03-02T09:54:11.069Z,2692
2018-03-02T09:54:51.587Z,2704
2018-03-02T09:55:32.106Z,2692